Pagina principale
METAR-TAF:

METAR-TAF

Aeroporti :

Cufra, Libia

latitudine: 24-13N, longitudine: 023-18E, altezza: 417 m

METAR: mancante

Ora: 21:29 (19:29 UTC)

Previsione

Il bollettino è stato emesso 2 ore e 29 minuti fa, alle 17:00 UTC
Previsione valida dal 24 alle 18 UTC al 25 alle 18 UTC
Vento 2 kt da direzioni variabili
Visibilità: 8000 m

TAF: HLKF 241700Z 2418/2518 34012KT 8000 NSC BECMG2506/2508 VRB02KT

Osservazioni e previsioni meteorologiche di più di 4000 aeroporti (messaggi METAR e TAF).

Le stazioni disponibili sono rappresentate dai dischi gialli e rossi sulla carta.

Puntare il mouse per vedere il nome della stazione.

Clicca sopra per visualizzare le osservazioni e previsioni meteorologiche.

Per cambiare la mappa : fare clic sui pulsanti verdi con una croce nera per ingrandire, il pulsante verde con un trattino per diminuire, o sulla freccia verde per le mappe adiacenti.


METAR-TAF: